MOL Maneuver — V7VC5 — position and weather

sailwx.info

Track history (hours):
 
Tides and Currents Weather Stations Pressure Air Temp Water Temp Dewpoint Dewpoint Depression Visibility Wind Speed Wind Dir Waves Ship Positions

MOL Maneuver

Last reported at 2018-Apr-25 23:30 UTC. Time now 2018-Apr-25 23:39 UTC.
Position N 34°39' E 135°15'.

Length 302 m; draft 10.8 m.

Type: Cargo ship. MMSI: 538004086.

Date/timePositionNaut miles runAvg speedWind from/ knotsBaromVisibWave heightAir tempDewpointWater temp
2018-Apr-25 23:30N 34°39' E 135°15'0 0.0
2018-Apr-25 23:00N 34°39' E 135°15'0 0.0
2018-Apr-25 22:30N 34°39' E 135°15'0 0.0
2018-Apr-25 22:00N 34°39' E 135°15'0 0.0
2018-Apr-25 21:30N 34°39' E 135°15'0 0.0
2018-Apr-25 21:00N 34°39' E 135°15'0 0.0
2018-Apr-25 20:27N 34°39' E 135°15'0 0.0
2018-Apr-25 20:00N 34°39' E 135°15'0 0.0
2018-Apr-25 19:30N 34°39' E 135°15'0 0.0
2018-Apr-25 19:00N 34°39' E 135°15'0 0.0
2018-Apr-25 18:30N 34°39' E 135°15'0 0.0
2018-Apr-25 18:00N 34°39' E 135°15'0 0.0
2018-Apr-25 17:30N 34°39' E 135°15'0 0.0
2018-Apr-25 17:00N 34°39' E 135°15'0 0.0
2018-Apr-25 16:30N 34°39' E 135°15'0 0.0
2018-Apr-25 16:00N 34°39' E 135°15'0 0.0
2018-Apr-25 15:30N 34°39' E 135°15'0 0.0
2018-Apr-25 15:00N 34°39' E 135°15'0 0.0
2018-Apr-25 14:30N 34°39' E 135°15'0 0.0
2018-Apr-25 14:00N 34°39' E 135°15'0 0.0
2018-Apr-25 13:30N 34°39' E 135°15'0 0.0
2018-Apr-25 13:00N 34°39' E 135°15'0 0.0
2018-Apr-25 12:30N 34°39' E 135°15'0 0.0
2018-Apr-25 12:00N 34°39' E 135°15'0 0.0
2018-Apr-25 11:30N 34°39' E 135°15'0 0.0
2018-Apr-25 11:00N 34°39' E 135°15'0 0.0
2018-Apr-25 10:30N 34°39' E 135°15'0 0.0
2018-Apr-25 10:00N 34°39' E 135°15'0 0.0
2018-Apr-25 09:30N 34°39' E 135°15'1 2.0
2018-Apr-25 09:00N 34°39' E 135°16'3 5.2
2018-Apr-25 08:30N 34°36' E 135°17'5 9.5
2018-Apr-25 08:00N 34°32' E 135°13'713.0
2018-Apr-25 07:31N 34°27' E 135°08'918.0
2018-Apr-25 07:01N 34°20' E 135°02'815.7
2018-Apr-25 06:30N 34°13' E 134°60'510.3
2018-Apr-25 06:00N 34°08' E 135°00'611.4
2018-Apr-25 05:30N 34°02' E 134°60'5 9.2
2018-Apr-25 05:00N 33°57' E 134°60'510.5
2018-Apr-25 04:30N 33°52' E 134°60'5 9.7
2018-Apr-25 04:00N 33°47' E 135°02'915.2
2018-Apr-25 03:24N 33°40' E 135°09'816.5
2018-Apr-25 02:55N 33°35' E 135°15'18917.4
2018-Apr-24 16:05N 34°30' E 138°54'219.7
2018-Apr-24 16:00N 34°30' E 138°55'1019.3
2018-Apr-24 15:30N 34°34' E 139°06'1118.5
2018-Apr-24 14:55N 34°37' E 139°19'717.2
2018-Apr-24 14:30N 34°39' E 139°27'1018.5
2018-Apr-24 13:56N 34°48' E 139°33'818.8
2018-Apr-24 13:30N 34°55' E 139°38'918.3
2018-Apr-24 13:00N 35°04' E 139°42'816.1
2018-Apr-24 12:30N 35°11' E 139°45'510.5
2018-Apr-24 12:00N 35°16' E 139°45'713.5
2018-Apr-24 11:31N 35°22' E 139°42'713.5
2018-Apr-24 11:01N 35°27' E 139°48'612.3
2018-Apr-24 10:31N 35°33' E 139°50'4 8.8
2018-Apr-24 10:00N 35°36' E 139°46'0 0.7
2018-Apr-24 09:28N 35°36' E 139°46'0 0.0
2018-Apr-24 08:55N 35°36' E 139°46'0 0.0
2018-Apr-24 08:28N 35°36' E 139°46'0 0.0
2018-Apr-24 07:55N 35°36' E 139°46'0 0.0
2018-Apr-24 07:19N 35°36' E 139°46'0 0.0
2018-Apr-24 06:55N 35°36' E 139°46'0 0.0
2018-Apr-24 06:28N 35°36' E 139°46'0 0.0
2018-Apr-24 05:55N 35°36' E 139°46'0 0.0
2018-Apr-24 05:10N 35°36' E 139°46'0 0.0
2018-Apr-24 04:58N 35°36' E 139°46'0 0.0
2018-Apr-24 04:28N 35°36' E 139°46'0 0.0
2018-Apr-24 03:58N 35°36' E 139°46'0 0.0
2018-Apr-24 03:28N 35°36' E 139°46'0 0.0
2018-Apr-24 02:58N 35°36' E 139°46'0 0.0
2018-Apr-24 02:28N 35°36' E 139°46'0 0.0
2018-Apr-24 01:55N 35°36' E 139°46'0 0.0
2018-Apr-24 01:28N 35°36' E 139°46'0 0.0
2018-Apr-24 00:55N 35°36' E 139°46'0 0.0
2018-Apr-24 00:28N 35°36' E 139°46'0 0.0
2018-Apr-23 23:58N 35°36' E 139°46'0 0.0
2018-Apr-23 23:28N 35°36' E 139°46'0 0.0
2018-Apr-23 23:01N 35°36' E 139°46'1 1.2
2018-Apr-23 22:30N 35°36' E 139°46'4 7.1
2018-Apr-23 22:00N 35°34' E 139°50'510.4
2018-Apr-23 21:30N 35°29' E 139°51'713.3
2018-Apr-23 21:00N 35°24' E 139°46'611.7
2018-Apr-23 20:30N 35°18' E 139°45'612.0
2018-Apr-23 20:00N 35°12' E 139°47'5 9.3
2018-Apr-23 19:30N 35°07' E 139°47'5 9.4
2018-Apr-23 19:01N 35°03' E 139°45'917.4
2018-Apr-23 18:28N 34°54' E 139°44'1318.2
2018-Apr-23 17:44N 34°48' E 139°59'1020.1
2018-Apr-23 17:13N 34°53' E 140°11'420.0
2018-Apr-23 17:00N 34°55' E 140°15'  
2018-Apr-20 21:00N 51°54' E 161°30'44818.7 270 / 101006.4 5.4 5.0 2.0
2018-Apr-19 21:00N 54°00' E 173°24'44617.8 090 / 231002.0 5.4 5.0 4.0
2018-Apr-18 20:00N 54°36' W 173°54'   320 / 27979.5 7.0 5.0
Track history (hours):
 
Tides and Currents Weather Stations Pressure Air Temp Water Temp Dewpoint Dewpoint Depression Visibility Wind Speed Wind Dir Waves Ship Positions

MOL Maneuver

Last reported at 2018-Apr-25 23:30 UTC. Time now 2018-Apr-25 23:39 UTC.
Position N 34°39' E 135°15'.

Length 302 m; draft 10.8 m.

Type: Cargo ship. MMSI: 538004086.

Date/timePositionNaut miles runAvg speedWind from/ knotsBaromVisibWave heightAir tempDewpointWater temp
2018-Apr-25 23:30N 34°39' E 135°15'0 0.0
2018-Apr-25 23:00N 34°39' E 135°15'0 0.0
2018-Apr-25 22:30N 34°39' E 135°15'0 0.0
2018-Apr-25 22:00N 34°39' E 135°15'0 0.0
2018-Apr-25 21:30N 34°39' E 135°15'0 0.0
2018-Apr-25 21:00N 34°39' E 135°15'0 0.0
2018-Apr-25 20:27N 34°39' E 135°15'0 0.0
2018-Apr-25 20:00N 34°39' E 135°15'0 0.0
2018-Apr-25 19:30N 34°39' E 135°15'0 0.0
2018-Apr-25 19:00N 34°39' E 135°15'0 0.0
2018-Apr-25 18:30N 34°39' E 135°15'0 0.0
2018-Apr-25 18:00N 34°39' E 135°15'0 0.0
2018-Apr-25 17:30N 34°39' E 135°15'0 0.0
2018-Apr-25 17:00N 34°39' E 135°15'0 0.0
2018-Apr-25 16:30N 34°39' E 135°15'0 0.0
2018-Apr-25 16:00N 34°39' E 135°15'0 0.0
2018-Apr-25 15:30N 34°39' E 135°15'0 0.0
2018-Apr-25 15:00N 34°39' E 135°15'0 0.0
2018-Apr-25 14:30N 34°39' E 135°15'0 0.0
2018-Apr-25 14:00N 34°39' E 135°15'0 0.0
2018-Apr-25 13:30N 34°39' E 135°15'0 0.0
2018-Apr-25 13:00N 34°39' E 135°15'0 0.0
2018-Apr-25 12:30N 34°39' E 135°15'0 0.0
2018-Apr-25 12:00N 34°39' E 135°15'0 0.0
2018-Apr-25 11:30N 34°39' E 135°15'0 0.0
2018-Apr-25 11:00N 34°39' E 135°15'0 0.0
2018-Apr-25 10:30N 34°39' E 135°15'0 0.0
2018-Apr-25 10:00N 34°39' E 135°15'0 0.0
2018-Apr-25 09:30N 34°39' E 135°15'1 2.0
2018-Apr-25 09:00N 34°39' E 135°16'3 5.2
2018-Apr-25 08:30N 34°36' E 135°17'5 9.5
2018-Apr-25 08:00N 34°32' E 135°13'713.0
2018-Apr-25 07:31N 34°27' E 135°08'918.0
2018-Apr-25 07:01N 34°20' E 135°02'815.7
2018-Apr-25 06:30N 34°13' E 134°60'510.3
2018-Apr-25 06:00N 34°08' E 135°00'611.4
2018-Apr-25 05:30N 34°02' E 134°60'5 9.2
2018-Apr-25 05:00N 33°57' E 134°60'510.5
2018-Apr-25 04:30N 33°52' E 134°60'5 9.7
2018-Apr-25 04:00N 33°47' E 135°02'915.2
2018-Apr-25 03:24N 33°40' E 135°09'816.5
2018-Apr-25 02:55N 33°35' E 135°15'18917.4
2018-Apr-24 16:05N 34°30' E 138°54'219.7
2018-Apr-24 16:00N 34°30' E 138°55'1019.3
2018-Apr-24 15:30N 34°34' E 139°06'1118.5
2018-Apr-24 14:55N 34°37' E 139°19'717.2
2018-Apr-24 14:30N 34°39' E 139°27'1018.5
2018-Apr-24 13:56N 34°48' E 139°33'818.8
2018-Apr-24 13:30N 34°55' E 139°38'918.3
2018-Apr-24 13:00N 35°04' E 139°42'816.1
2018-Apr-24 12:30N 35°11' E 139°45'510.5
2018-Apr-24 12:00N 35°16' E 139°45'713.5
2018-Apr-24 11:31N 35°22' E 139°42'713.5
2018-Apr-24 11:01N 35°27' E 139°48'612.3
2018-Apr-24 10:31N 35°33' E 139°50'4 8.8
2018-Apr-24 10:00N 35°36' E 139°46'0 0.7
2018-Apr-24 09:28N 35°36' E 139°46'0 0.0
2018-Apr-24 08:55N 35°36' E 139°46'0 0.0
2018-Apr-24 08:28N 35°36' E 139°46'0 0.0
2018-Apr-24 07:55N 35°36' E 139°46'0 0.0
2018-Apr-24 07:19N 35°36' E 139°46'0 0.0
2018-Apr-24 06:55N 35°36' E 139°46'0 0.0
2018-Apr-24 06:28N 35°36' E 139°46'0 0.0
2018-Apr-24 05:55N 35°36' E 139°46'0 0.0
2018-Apr-24 05:10N 35°36' E 139°46'0 0.0
2018-Apr-24 04:58N 35°36' E 139°46'0 0.0
2018-Apr-24 04:28N 35°36' E 139°46'0 0.0
2018-Apr-24 03:58N 35°36' E 139°46'0 0.0
2018-Apr-24 03:28N 35°36' E 139°46'0 0.0
2018-Apr-24 02:58N 35°36' E 139°46'0 0.0
2018-Apr-24 02:28N 35°36' E 139°46'0 0.0
2018-Apr-24 01:55N 35°36' E 139°46'0 0.0
2018-Apr-24 01:28N 35°36' E 139°46'0 0.0
2018-Apr-24 00:55N 35°36' E 139°46'0 0.0
2018-Apr-24 00:28N 35°36' E 139°46'0 0.0
2018-Apr-23 23:58N 35°36' E 139°46'0 0.0
2018-Apr-23 23:28N 35°36' E 139°46'0 0.0
2018-Apr-23 23:01N 35°36' E 139°46'1 1.2
2018-Apr-23 22:30N 35°36' E 139°46'4 7.1
2018-Apr-23 22:00N 35°34' E 139°50'510.4
2018-Apr-23 21:30N 35°29' E 139°51'713.3
2018-Apr-23 21:00N 35°24' E 139°46'611.7
2018-Apr-23 20:30N 35°18' E 139°45'612.0
2018-Apr-23 20:00N 35°12' E 139°47'5 9.3
2018-Apr-23 19:30N 35°07' E 139°47'5 9.4
2018-Apr-23 19:01N 35°03' E 139°45'917.4
2018-Apr-23 18:28N 34°54' E 139°44'1318.2
2018-Apr-23 17:44N 34°48' E 139°59'1020.1
2018-Apr-23 17:13N 34°53' E 140°11'420.0
2018-Apr-23 17:00N 34°55' E 140°15'  
2018-Apr-20 21:00N 51°54' E 161°30'44818.7 270 / 101006.4 5.4 5.0 2.0
2018-Apr-19 21:00N 54°00' E 173°24'44617.8 090 / 231002.0 5.4 5.0 4.0
2018-Apr-18 20:00N 54°36' W 173°54'   320 / 27979.5 7.0 5.0

Dump ship's entire track history